High temp

Not for real navigation. The accuracy of this data is not assured See disclaimer for more information



ICAO NAME COUNTRY WIND Kt GUST Kt VIS m TEMP/DEW C BARO METAR
YPKU Kununurra Kununurra Aws Australia 3 0 9999 41/6 29.71 YPKU 150800Z AUTO 27003KT 9999 // SCT120 41/06 Q1006 RF00.0/000.0
YARG 9 0 9999 40/4 29.74 YARG 150800Z AUTO 23009KT 9999 // NCD 40/04 Q1007
VAAH Ahmadabad India 3 0 6000 39/13 29.85 VAAH 150800Z 33003KT 6000 NSC 39/13 Q1011 NOSIG
OPKC Karachi Airport Pakistan 8 0 6000 38/2 29.85 OPKC 150755Z 32008KT 6000 NSC 38/02 Q1011 NOSIG
OERR Arar Saudi Arabia 0 0 5000 37/15 29.94 OERR 150800Z 00000KT 5000 HZ SCT040 37/15 Q1014 NOSIG

Show more